This is the latest recevied weather packets stored in our database for station/object E22FEY-1. If no packets are shown the sender has not sent any weather packets the latest 10 day(s).
| Time | Temp. | Humidity | Pressure | Rain* | Wind** | Luminosity | Snow |
|---|---|---|---|---|---|---|---|
| 1777618971 | 39.44° C | 41% | 1008 hPa | - | - | 0 W/m² | - |
| 1777618047 | 39.44° C | 41% | 1008 hPa | - | - | 0 W/m² | - |
| 1777617122 | 38.89° C | 42% | 1008 hPa | - | - | 0 W/m² | - |
| 1777616198 | 38.33° C | 44% | 1009 hPa | - | - | 0 W/m² | - |
| 1777615274 | 38.33° C | 44% | 1009 hPa | - | - | 0 W/m² | - |
| 1777614349 | 37.78° C | 46% | 1009 hPa | - | - | 0 W/m² | - |
| 1777613424 | 37.22° C | 45% | 1009 hPa | - | - | 0 W/m² | - |
| 1777612500 | 37.22° C | 49% | 1009 hPa | - | - | 0 W/m² | - |
| 1777611576 | 37.22° C | 46% | 1010 hPa | - | - | 0 W/m² | - |
| 1777610651 | 36.11° C | 49% | 1010 hPa | - | - | 0 W/m² | - |
| 1777609727 | 37.78° C | 45% | 1010 hPa | - | - | 0 W/m² | - |
| 1777608803 | 39.44° C | 41% | 1010 hPa | - | - | 0 W/m² | - |
| 1777607878 | 38.33° C | 43% | 1010 hPa | - | - | 0 W/m² | - |
| 1777606954 | 38.33° C | 44% | 1009 hPa | - | - | 0 W/m² | - |
| 1777606030 | 37.78° C | 45% | 1010 hPa | - | - | 0 W/m² | - |
| 1777605106 | 38.33° C | 43% | 1010 hPa | - | - | 0 W/m² | - |
| 1777604181 | 36.67° C | 47% | 1010 hPa | - | - | 0 W/m² | - |
| 1777603257 | 36.67° C | 47% | 1010 hPa | - | - | 0 W/m² | - |
| 1777602333 | 36.67° C | 47% | 1010 hPa | - | - | 0 W/m² | - |
| 1777601409 | 36.67° C | 47% | 1011 hPa | - | - | 0 W/m² | - |
| 1777600485 | 36.11° C | 48% | 1010 hPa | - | - | 0 W/m² | - |
| 1777599560 | 35.56° C | 49% | 1010 hPa | - | - | 0 W/m² | - |
| 1777598636 | 37.22° C | 46% | 1010 hPa | - | - | 0 W/m² | - |
| 1777597712 | 36.11° C | 47% | 1010 hPa | - | - | 0 W/m² | - |
| 1777596788 | 36.11° C | 47% | 1010 hPa | - | - | 0 W/m² | - |
* Rain since midnight (hover to see other rain measurements)
** Current wind speed in m/s (hover to see current wind gust speed)